createdAt,value
2022-09-28T00:00:37.886Z,8.50
2022-09-28T00:01:37.971Z,8.48
2022-09-28T00:02:38.163Z,8.48
2022-09-28T00:03:38.151Z,8.47
2022-09-28T00:04:38.225Z,8.45
2022-09-28T00:05:38.314Z,8.42
2022-09-28T00:06:38.414Z,8.40
2022-09-28T00:07:38.506Z,8.39
2022-09-28T00:08:38.566Z,8.35
2022-09-28T00:09:38.670Z,8.33
2022-09-28T00:10:38.743Z,8.32
2022-09-28T00:11:38.832Z,8.30
2022-09-28T00:12:38.930Z,8.30
2022-09-28T00:13:38.976Z,8.26
2022-09-28T00:14:39.042Z,8.26
2022-09-28T00:15:39.117Z,8.25
2022-09-28T00:16:39.343Z,8.22
2022-09-28T00:17:39.270Z,8.22
2022-09-28T00:18:39.350Z,8.21
2022-09-28T00:19:39.426Z,8.18
2022-09-28T00:20:39.523Z,8.12
2022-09-28T00:21:39.598Z,8.04
2022-09-28T00:22:39.678Z,7.99
2022-09-28T00:23:39.770Z,7.97
2022-09-28T00:24:39.868Z,7.99
2022-09-28T00:25:39.958Z,7.96
2022-09-28T00:26:40.031Z,7.97
2022-09-28T00:27:40.154Z,7.94
2022-09-28T00:28:40.163Z,7.92
2022-09-28T00:29:40.235Z,7.89
2022-09-28T00:30:40.328Z,7.84
2022-09-28T00:31:40.475Z,7.78
2022-09-28T00:32:40.478Z,7.67
2022-09-28T00:33:40.574Z,7.56
2022-09-28T00:34:40.679Z,7.55
2022-09-28T00:35:40.730Z,7.55
2022-09-28T00:36:40.812Z,7.52
2022-09-28T00:37:40.900Z,7.55
2022-09-28T00:38:40.946Z,7.53
2022-09-28T00:39:41.069Z,7.52
2022-09-28T00:40:41.243Z,7.47
2022-09-28T00:41:41.229Z,7.44
2022-09-28T00:42:41.307Z,7.44
2022-09-28T00:43:41.447Z,7.47
2022-09-28T00:44:41.491Z,7.45
2022-09-28T00:45:41.622Z,7.41
2022-09-28T00:46:41.643Z,7.29
2022-09-28T00:47:41.717Z,7.20
2022-09-28T00:48:41.800Z,7.12
2022-09-28T00:49:41.893Z,7.01
2022-09-28T00:50:42.019Z,6.95
2022-09-28T00:51:42.091Z,6.89
2022-09-28T00:52:42.164Z,6.80
2022-09-28T00:53:42.339Z,6.76
2022-09-28T00:54:42.340Z,6.71
2022-09-28T00:55:42.399Z,6.68
2022-09-28T00:56:42.521Z,6.62
2022-09-28T00:57:42.572Z,6.61
2022-09-28T00:58:42.652Z,6.58
2022-09-28T00:59:42.759Z,6.53
2022-09-28T01:00:42.893Z,6.50
2022-09-28T01:01:42.971Z,6.47
2022-09-28T01:02:43.014Z,6.43
2022-09-28T01:03:43.123Z,6.43
2022-09-28T01:04:43.201Z,6.46
2022-09-28T01:05:43.273Z,6.44
2022-09-28T01:06:43.344Z,6.46
2022-09-28T01:07:43.424Z,6.50
2022-09-28T01:08:43.540Z,6.56
2022-09-28T01:09:43.580Z,6.58
2022-09-28T01:10:43.660Z,6.53
2022-09-28T01:11:43.732Z,6.51
2022-09-28T01:12:43.816Z,6.50
2022-09-28T01:13:43.904Z,6.51
2022-09-28T01:14:43.984Z,6.54
2022-09-28T01:15:44.072Z,6.56
2022-09-28T01:16:44.237Z,6.56
2022-09-28T01:17:44.212Z,6.62
2022-09-28T01:18:44.324Z,6.68
2022-09-28T01:19:44.421Z,6.71
2022-09-28T01:20:44.477Z,6.72
2022-09-28T01:21:44.561Z,6.73
2022-09-28T01:22:44.704Z,6.72
2022-09-28T01:23:44.748Z,6.73
2022-09-28T01:24:44.820Z,6.76
2022-09-28T01:25:44.888Z,6.76
2022-09-28T01:26:44.948Z,6.73
2022-09-28T01:27:45.093Z,6.71
2022-09-28T01:28:45.125Z,6.68
2022-09-28T01:29:45.205Z,6.65
2022-09-28T01:30:45.293Z,6.62
2022-09-28T01:31:45.487Z,6.59
2022-09-28T01:32:45.462Z,6.56
2022-09-28T01:33:45.661Z,6.53
2022-09-28T01:34:45.641Z,6.50
2022-09-28T01:35:45.720Z,6.51
2022-09-28T01:36:45.810Z,6.53
2022-09-28T01:37:45.929Z,6.53
2022-09-28T01:38:45.976Z,6.53
2022-09-28T01:39:46.048Z,6.46
2022-09-28T01:40:46.192Z,6.36
2022-09-28T01:41:46.185Z,6.35
2022-09-28T01:42:46.285Z,6.29
2022-09-28T01:43:46.364Z,6.28
2022-09-28T01:44:46.452Z,6.22
2022-09-28T01:45:46.618Z,6.14
2022-09-28T01:46:46.612Z,6.09
2022-09-28T01:47:46.737Z,6.04
2022-09-28T01:48:46.821Z,6.06
2022-09-28T01:49:46.885Z,6.10
2022-09-28T01:50:46.963Z,6.13
2022-09-28T01:51:47.129Z,6.16
2022-09-28T01:52:47.145Z,6.16
2022-09-28T01:53:47.345Z,6.11
2022-09-28T01:54:47.309Z,6.09
2022-09-28T01:55:47.372Z,6.01
2022-09-28T01:56:47.474Z,5.92
2022-09-28T01:57:47.557Z,5.83
2022-09-28T01:58:47.629Z,5.77
2022-09-28T01:59:47.713Z,5.67
2022-09-28T02:00:47.854Z,5.60
2022-09-28T02:01:47.971Z,5.55
2022-09-28T02:02:47.981Z,5.52
2022-09-28T02:03:48.057Z,5.45
2022-09-28T02:04:48.155Z,5.43
2022-09-28T02:05:48.233Z,5.40
2022-09-28T02:06:48.325Z,5.34
2022-09-28T02:07:48.413Z,5.27
2022-09-28T02:08:48.482Z,5.19
2022-09-28T02:09:48.591Z,5.16
2022-09-28T02:10:48.642Z,5.19
2022-09-28T02:11:48.753Z,5.13
2022-09-28T02:12:48.785Z,5.09
2022-09-28T02:13:48.870Z,4.99
2022-09-28T02:14:48.964Z,4.95
2022-09-28T02:15:49.005Z,4.96
2022-09-28T02:16:49.099Z,4.89
2022-09-28T02:17:49.205Z,4.89
2022-09-28T02:18:49.294Z,4.88
2022-09-28T02:19:49.342Z,4.88
2022-09-28T02:20:49.441Z,4.88
2022-09-28T02:21:49.550Z,4.88
2022-09-28T02:22:49.582Z,4.91
2022-09-28T02:23:49.681Z,4.89
2022-09-28T02:24:49.770Z,4.94
2022-09-28T02:25:49.872Z,4.96
2022-09-28T02:26:49.932Z,5.04
2022-09-28T02:27:50.045Z,5.20
2022-09-28T02:28:50.110Z,5.32
2022-09-28T02:29:50.197Z,5.35
2022-09-28T02:30:50.265Z,5.41
2022-09-28T02:31:50.477Z,5.45
2022-09-28T02:32:50.478Z,5.49
2022-09-28T02:33:50.522Z,5.53
2022-09-28T02:34:50.603Z,5.56
2022-09-28T02:35:50.705Z,5.63
2022-09-28T02:36:50.806Z,5.71
2022-09-28T02:37:50.901Z,5.75
2022-09-28T02:38:50.969Z,5.81
2022-09-28T02:39:51.050Z,5.85
2022-09-28T02:40:51.270Z,5.92
2022-09-28T02:41:51.234Z,5.96
2022-09-28T02:42:51.310Z,6.03
2022-09-28T02:43:51.442Z,6.09
2022-09-28T02:44:51.499Z,6.14
2022-09-28T02:45:51.647Z,6.22
2022-09-28T02:46:51.642Z,6.26
2022-09-28T02:47:51.804Z,6.33
2022-09-28T02:49:04.996Z,6.40
2022-09-28T02:49:51.930Z,6.41
2022-09-28T02:50:52.052Z,6.43
2022-09-28T02:51:52.107Z,6.46
2022-09-28T02:52:52.198Z,6.47
2022-09-28T02:53:52.297Z,6.48
2022-09-28T02:54:52.342Z,6.51
2022-09-28T02:55:52.425Z,6.53
2022-09-28T02:56:52.510Z,6.56
2022-09-28T02:57:52.575Z,6.58
2022-09-28T02:58:52.680Z,6.59
2022-09-28T02:59:52.734Z,6.63
2022-09-28T03:00:52.864Z,6.68
2022-09-28T03:01:52.968Z,6.71
2022-09-28T03:02:52.958Z,6.73
2022-09-28T03:03:53.062Z,6.77
2022-09-28T03:04:53.149Z,6.81
2022-09-28T03:05:53.247Z,6.83
2022-09-28T03:06:53.307Z,6.86
2022-09-28T03:07:53.415Z,6.86
2022-09-28T03:08:53.474Z,6.89
2022-09-28T03:09:53.586Z,6.94
2022-09-28T03:10:53.654Z,6.97
2022-09-28T03:11:53.750Z,7.04
2022-09-28T03:12:53.843Z,7.09
2022-09-28T03:13:53.921Z,7.15
2022-09-28T03:14:53.991Z,7.15
2022-09-28T03:15:54.120Z,7.19
2022-09-28T03:16:54.171Z,7.17
2022-09-28T03:17:54.267Z,7.17
2022-09-28T03:18:54.353Z,7.22
2022-09-28T03:19:54.416Z,7.24
2022-09-28T03:20:54.507Z,7.27
2022-09-28T03:21:54.594Z,7.31
2022-09-28T03:23:19.811Z,7.29
2022-09-28T03:23:54.819Z,7.29
2022-09-28T03:24:54.822Z,7.27
2022-09-28T03:25:54.940Z,7.26
2022-09-28T03:26:55.011Z,7.24
2022-09-28T03:27:55.099Z,7.27
2022-09-28T03:28:55.179Z,7.26
2022-09-28T03:29:55.263Z,7.27
2022-09-28T03:30:55.338Z,7.27
2022-09-28T03:31:55.504Z,7.27
2022-09-28T03:32:55.580Z,7.26
2022-09-28T03:33:55.607Z,7.24
2022-09-28T03:34:55.688Z,7.23
2022-09-28T03:35:55.819Z,7.22
2022-09-28T03:36:55.874Z,7.20
2022-09-28T03:37:55.972Z,7.20
2022-09-28T03:38:56.029Z,7.20
2022-09-28T03:39:56.095Z,7.20
2022-09-28T03:40:56.234Z,7.20
2022-09-28T03:41:56.242Z,7.20
2022-09-28T03:42:56.368Z,7.19
2022-09-28T03:43:56.435Z,7.19
2022-09-28T03:44:56.528Z,7.20
2022-09-28T03:45:56.735Z,7.22
2022-09-28T03:46:56.684Z,7.22
2022-09-28T03:47:56.779Z,7.23
2022-09-28T03:48:56.924Z,7.24
2022-09-28T03:49:56.944Z,7.27
2022-09-28T03:50:57.056Z,7.27
2022-09-28T03:51:57.128Z,7.26
2022-09-28T03:52:57.196Z,7.22
2022-09-28T03:53:57.260Z,7.20
2022-09-28T03:54:57.363Z,7.17
2022-09-28T03:55:57.454Z,7.15
2022-09-28T03:56:57.538Z,7.15
2022-09-28T03:57:57.607Z,7.16
2022-09-28T03:58:57.693Z,7.16
2022-09-28T03:59:57.763Z,7.15
2022-09-28T04:00:58.015Z,7.12
2022-09-28T04:01:57.981Z,7.05
2022-09-28T04:02:57.978Z,7.01
2022-09-28T04:03:58.055Z,6.97
2022-09-28T04:04:58.153Z,6.95
2022-09-28T04:05:58.226Z,6.95
2022-09-28T04:06:58.307Z,6.90
2022-09-28T04:07:58.390Z,6.89
2022-09-28T04:08:58.491Z,6.86
2022-09-28T04:09:58.585Z,6.87
2022-09-28T04:10:58.690Z,6.91
2022-09-28T04:12:03.951Z,6.91
2022-09-28T04:12:58.809Z,6.91
2022-09-28T04:13:58.953Z,6.94
2022-09-28T04:14:58.987Z,6.91
2022-09-28T04:15:59.179Z,6.87
2022-09-28T04:16:59.116Z,6.86
2022-09-28T04:17:59.231Z,6.83
2022-09-28T04:18:59.305Z,6.79
2022-09-28T04:19:59.385Z,6.76
2022-09-28T04:20:59.517Z,6.72
2022-09-28T04:21:59.629Z,6.69
2022-09-28T04:22:59.675Z,6.66
2022-09-28T04:23:59.764Z,6.65
2022-09-28T04:24:59.827Z,6.62
2022-09-28T04:25:59.909Z,6.62
2022-09-28T04:27:00.035Z,6.61
2022-09-28T04:28:00.114Z,6.61
2022-09-28T04:29:05.486Z,6.61
2022-09-28T04:30:00.267Z,6.62
2022-09-28T04:31:00.355Z,6.62
2022-09-28T04:32:00.532Z,6.63
2022-09-28T04:33:00.549Z,6.65
2022-09-28T04:34:00.609Z,6.68
2022-09-28T04:35:00.692Z,6.68
2022-09-28T04:36:00.765Z,6.68
2022-09-28T04:37:00.864Z,6.69
2022-09-28T04:38:00.927Z,6.68
2022-09-28T04:39:00.994Z,6.68
2022-09-28T04:40:01.153Z,6.68
2022-09-28T04:41:01.258Z,6.69
2022-09-28T04:42:01.272Z,6.69
2022-09-28T04:43:01.367Z,6.69
2022-09-28T04:44:01.477Z,6.69
2022-09-28T04:45:01.514Z,6.72
2022-09-28T04:46:01.680Z,6.73
2022-09-28T04:47:05.028Z,6.77
2022-09-28T04:48:01.832Z,6.81
2022-09-28T04:49:01.892Z,6.84
2022-09-28T04:50:02.018Z,6.87
2022-09-28T04:51:02.093Z,6.89
2022-09-28T04:52:02.177Z,6.94
2022-09-28T04:53:02.279Z,6.98
2022-09-28T04:54:02.357Z,6.99
2022-09-28T04:55:02.469Z,7.02
2022-09-28T04:56:02.520Z,7.01
2022-09-28T04:57:02.602Z,7.05
2022-09-28T04:58:02.690Z,7.07
2022-09-28T04:59:02.807Z,7.09
2022-09-28T05:00:02.887Z,7.12
2022-09-28T05:01:03.050Z,7.16
2022-09-28T05:02:03.185Z,7.17
2022-09-28T05:03:03.120Z,7.19
2022-09-28T05:04:03.193Z,7.20
2022-09-28T05:05:03.358Z,7.20
2022-09-28T05:06:03.382Z,7.23
2022-09-28T05:07:03.494Z,7.24
2022-09-28T05:08:03.504Z,7.24
2022-09-28T05:09:03.604Z,7.24
2022-09-28T05:10:03.684Z,7.26
2022-09-28T05:11:03.841Z,7.27
2022-09-28T05:12:03.837Z,7.27
2022-09-28T05:13:03.944Z,7.29
2022-09-28T05:14:04.045Z,7.29
2022-09-28T05:15:04.122Z,7.31
2022-09-28T05:16:05.551Z,7.31
2022-09-28T05:17:04.289Z,7.31
2022-09-28T05:18:04.392Z,7.31
2022-09-28T05:19:04.464Z,7.31
2022-09-28T05:20:04.567Z,7.31
2022-09-28T05:21:04.662Z,7.31
2022-09-28T05:22:04.748Z,7.32
2022-09-28T05:23:04.808Z,7.32
2022-09-28T05:24:04.897Z,7.32
2022-09-28T05:25:04.961Z,7.32
2022-09-28T05:26:05.062Z,7.34
2022-09-28T05:27:05.134Z,7.34
2022-09-28T05:28:05.195Z,7.34
2022-09-28T05:29:05.297Z,7.34
2022-09-28T05:30:05.392Z,7.34
2022-09-28T05:31:05.477Z,7.35
2022-09-28T05:32:05.617Z,7.35
2022-09-28T05:33:05.650Z,7.37
2022-09-28T05:34:05.709Z,7.37
2022-09-28T05:35:05.805Z,7.37
2022-09-28T05:36:05.917Z,7.38
2022-09-28T05:37:05.965Z,7.40
2022-09-28T05:38:06.053Z,7.38
2022-09-28T05:39:06.175Z,7.40
2022-09-28T05:40:06.267Z,7.40
2022-09-28T05:41:06.924Z,7.40
2022-09-28T05:42:06.405Z,7.41
2022-09-28T05:43:06.501Z,7.41
2022-09-28T05:44:06.653Z,7.42
2022-09-28T05:45:06.649Z,7.44
2022-09-28T05:46:06.836Z,7.44
2022-09-28T05:47:06.820Z,7.45
2022-09-28T05:48:06.909Z,7.47
2022-09-28T05:49:07.001Z,7.49
2022-09-28T05:50:07.074Z,7.49
2022-09-28T05:51:07.146Z,7.50
2022-09-28T05:52:07.242Z,7.53
2022-09-28T05:53:07.350Z,7.53
2022-09-28T05:54:07.382Z,7.55
2022-09-28T05:55:07.534Z,7.56
2022-09-28T05:56:07.582Z,7.58
2022-09-28T05:57:07.667Z,7.59
2022-09-28T05:58:07.762Z,7.59
2022-09-28T05:59:07.907Z,7.60
2022-09-28T06:00:07.963Z,7.62
2022-09-28T06:01:08.117Z,7.66
2022-09-28T06:02:08.136Z,7.67
2022-09-28T06:03:09.447Z,7.69
2022-09-28T06:04:08.277Z,7.67
2022-09-28T06:05:08.377Z,7.69
2022-09-28T06:06:08.437Z,7.71
2022-09-28T06:18:32.889Z,7.89
2022-09-28T06:19:33.921Z,7.92
2022-09-28T06:20:34.045Z,7.93
2022-09-28T06:21:34.061Z,7.94
2022-09-28T06:22:34.104Z,7.96
2022-09-28T06:23:34.238Z,7.96
2022-09-28T06:24:34.371Z,7.94
2022-09-28T06:25:34.358Z,7.96
2022-09-28T06:26:34.472Z,7.97
2022-09-28T06:27:34.579Z,7.97
2022-09-28T06:28:34.660Z,7.97
2022-09-28T06:29:34.755Z,7.97
2022-09-28T06:30:35.033Z,7.99
2022-09-28T06:31:34.932Z,7.97
2022-09-28T06:32:35.010Z,8.00
2022-09-28T06:33:35.151Z,8.00
2022-09-28T06:34:35.191Z,7.99
2022-09-28T06:35:35.266Z,7.97
2022-09-28T06:36:35.401Z,8.00
2022-09-28T06:37:35.492Z,7.99
2022-09-28T06:38:35.603Z,7.99
2022-09-28T06:39:35.643Z,7.99
2022-09-28T06:40:35.729Z,7.99
2022-09-28T06:41:35.770Z,7.97
2022-09-28T06:42:35.860Z,7.97
2022-09-28T06:43:35.951Z,7.97
2022-09-28T06:44:36.035Z,7.96
2022-09-28T06:45:36.318Z,7.97
2022-09-28T06:46:36.304Z,7.97
2022-09-28T06:47:36.396Z,7.97
2022-09-28T06:48:36.512Z,7.99
2022-09-28T06:49:36.473Z,8.00
2022-09-28T06:50:36.557Z,8.00
2022-09-28T06:51:36.671Z,8.02
2022-09-28T06:52:36.838Z,8.03
2022-09-28T06:53:36.869Z,8.03
2022-09-28T06:54:36.953Z,8.03
2022-09-28T06:55:37.090Z,8.04
2022-09-28T06:56:37.089Z,8.07
2022-09-28T06:57:37.182Z,8.04
2022-09-28T06:58:37.282Z,8.08
2022-09-28T06:59:37.309Z,8.11
2022-09-28T07:00:37.465Z,8.11
2022-09-28T07:01:37.485Z,8.11
2022-09-28T07:02:37.698Z,8.14
2022-09-28T07:03:37.637Z,8.14
2022-09-28T07:04:37.722Z,8.15
2022-09-28T07:05:37.813Z,8.17
2022-09-28T07:06:37.881Z,8.18
2022-09-28T07:07:37.997Z,8.21
2022-09-28T07:08:38.136Z,8.22
2022-09-28T07:09:43.723Z,8.22
2022-09-28T07:10:38.561Z,8.28
2022-09-28T07:11:38.300Z,8.30
2022-09-28T07:12:38.496Z,8.32
2022-09-28T07:13:53.944Z,8.35
2022-09-28T07:14:47.402Z,8.37
2022-09-28T07:15:38.637Z,8.39
2022-09-28T07:17:06.918Z,8.37
2022-09-28T07:17:53.038Z,8.40
2022-09-28T07:18:38.873Z,8.37
2022-09-28T07:19:38.974Z,8.42
2022-09-28T07:20:50.652Z,8.48
2022-09-28T07:21:39.117Z,8.51
2022-09-28T07:22:43.503Z,8.57
2022-09-28T07:23:51.404Z,8.63
2022-09-28T07:24:39.413Z,8.63
2022-09-28T07:25:39.461Z,8.60
2022-09-28T07:26:39.528Z,8.62
2022-09-28T07:27:39.644Z,8.65
2022-09-28T07:28:39.721Z,8.68
2022-09-28T07:29:39.867Z,8.73
2022-09-28T07:30:39.938Z,8.79
2022-09-28T07:31:39.965Z,8.83
2022-09-28T07:32:40.048Z,8.83
2022-09-28T07:33:40.133Z,8.83
2022-09-28T07:34:40.221Z,8.83
2022-09-28T07:35:40.333Z,8.76
2022-09-28T07:36:40.365Z,8.83
2022-09-28T07:37:40.452Z,8.87
2022-09-28T07:38:40.526Z,8.91
2022-09-28T07:39:40.646Z,8.97
2022-09-28T07:40:44.083Z,9.02
2022-09-28T07:41:40.786Z,8.99
2022-09-28T07:42:40.909Z,9.06
2022-09-28T07:43:40.962Z,9.09
2022-09-28T07:44:41.058Z,9.10
2022-09-28T07:45:41.200Z,9.18
2022-09-28T07:46:41.200Z,9.21
2022-09-28T07:47:41.289Z,9.23
2022-09-28T07:48:41.385Z,9.20
2022-09-28T07:49:41.457Z,9.24
2022-09-28T07:50:41.598Z,9.30
2022-09-28T07:51:41.677Z,9.39
2022-09-28T07:52:41.802Z,9.40
2022-09-28T07:53:41.860Z,9.39
2022-09-28T07:54:41.957Z,9.46
2022-09-28T07:55:42.058Z,9.53
2022-09-28T07:56:42.133Z,9.60
2022-09-28T07:57:42.193Z,9.63
2022-09-28T07:58:42.234Z,9.64
2022-09-28T07:59:42.359Z,9.49
2022-09-28T08:00:42.482Z,9.42
2022-09-28T08:01:42.612Z,9.21
2022-09-28T08:02:42.729Z,9.18
2022-09-28T08:03:42.693Z,9.27
2022-09-28T08:04:42.767Z,9.35
2022-09-28T08:05:42.877Z,9.35
2022-09-28T08:06:42.978Z,9.42
2022-09-28T08:07:43.050Z,9.45
2022-09-28T08:08:43.145Z,9.57
2022-09-28T08:09:43.220Z,9.73
2022-09-28T08:10:46.593Z,9.85
2022-09-28T08:11:43.394Z,9.78
2022-09-28T08:12:43.486Z,9.83
2022-09-28T08:13:43.582Z,9.91
2022-09-28T08:14:43.649Z,9.97
2022-09-28T08:15:43.722Z,9.93
2022-09-28T08:16:43.859Z,9.94
2022-09-28T08:17:43.906Z,10.00
2022-09-28T08:18:44.001Z,9.96
2022-09-28T08:19:44.094Z,9.94
2022-09-28T08:20:46.992Z,9.86
2022-09-28T08:21:44.294Z,9.89
2022-09-28T08:22:44.525Z,9.78
2022-09-28T08:23:44.444Z,9.71
2022-09-28T08:24:44.535Z,9.71
2022-09-28T08:25:44.624Z,9.75
2022-09-28T08:26:44.864Z,9.85
2022-09-28T08:27:44.848Z,9.85
2022-09-28T08:28:44.901Z,9.81
2022-09-28T08:29:44.987Z,9.82
2022-09-28T08:30:45.141Z,9.85
2022-09-28T08:31:45.160Z,9.94
2022-09-28T08:32:45.280Z,10.04
2022-09-28T08:33:45.355Z,10.15
2022-09-28T08:34:45.440Z,10.17
2022-09-28T08:35:45.484Z,10.14
2022-09-28T08:36:45.744Z,10.03
2022-09-28T08:37:50.562Z,9.96
2022-09-28T08:38:45.801Z,9.89
2022-09-28T08:39:45.882Z,9.93
2022-09-28T08:40:46.021Z,9.96
2022-09-28T08:41:46.068Z,10.01
2022-09-28T08:42:46.119Z,9.97
2022-09-28T08:43:46.258Z,9.88
2022-09-28T08:44:47.220Z,9.88
2022-09-28T08:45:46.451Z,9.89
2022-09-28T08:46:46.531Z,9.88
2022-09-28T08:47:46.523Z,9.91
2022-09-28T08:48:56.235Z,9.94
2022-09-28T08:49:46.758Z,10.00
2022-09-28T08:50:46.807Z,9.88
2022-09-28T08:51:46.885Z,9.85
2022-09-28T08:52:46.979Z,9.93
2022-09-28T08:53:47.136Z,10.00
2022-09-28T08:54:47.203Z,10.09
2022-09-28T08:55:47.275Z,10.06
2022-09-28T08:56:47.315Z,10.07
2022-09-28T08:57:47.431Z,10.06
2022-09-28T08:58:47.530Z,10.10
2022-09-28T08:59:47.617Z,10.19
2022-09-28T09:00:47.693Z,10.25
2022-09-28T09:01:47.751Z,10.21
2022-09-28T09:02:47.868Z,10.15
2022-09-28T09:03:47.868Z,10.12
2022-09-28T09:04:48.023Z,10.12
2022-09-28T09:05:48.083Z,10.18
2022-09-28T09:06:48.192Z,10.15
2022-09-28T09:07:49.097Z,10.14
2022-09-28T09:08:48.365Z,10.17
2022-09-28T09:09:48.612Z,10.22
2022-09-28T09:10:48.559Z,10.26
2022-09-28T09:11:48.644Z,10.33
2022-09-28T09:12:48.767Z,10.42
2022-09-28T09:13:48.945Z,10.47
2022-09-28T09:14:48.933Z,10.59
2022-09-28T09:15:49.172Z,10.43
2022-09-28T09:16:49.098Z,10.37
2022-09-28T09:17:49.145Z,10.42
2022-09-28T09:18:49.245Z,10.34
2022-09-28T09:19:49.428Z,10.34
2022-09-28T09:20:49.412Z,10.32
2022-09-28T09:21:49.524Z,10.33
2022-09-28T09:22:49.544Z,10.36
2022-09-28T09:23:49.640Z,10.42
2022-09-28T09:24:49.761Z,10.39
2022-09-28T09:25:49.783Z,10.42
2022-09-28T09:26:49.868Z,10.37
2022-09-28T09:27:49.993Z,10.37
2022-09-28T09:28:50.032Z,10.34
2022-09-28T09:29:50.144Z,10.36
2022-09-28T09:30:50.259Z,10.42
2022-09-28T09:31:50.280Z,10.39
2022-09-28T09:32:50.344Z,10.40
2022-09-28T09:33:50.425Z,10.46
2022-09-28T09:34:50.548Z,10.47
2022-09-28T09:35:50.621Z,10.52
2022-09-28T09:36:50.696Z,10.39
2022-09-28T09:37:53.164Z,10.40
2022-09-28T09:38:50.812Z,10.44
2022-09-28T09:39:50.898Z,10.55
2022-09-28T09:40:51.073Z,10.60
2022-09-28T09:41:51.094Z,10.63
2022-09-28T09:42:51.213Z,10.68
2022-09-28T09:43:51.209Z,10.73
2022-09-28T09:44:51.330Z,10.68
2022-09-28T09:45:51.462Z,10.68
2022-09-28T09:46:51.466Z,10.71
2022-09-28T09:47:51.710Z,10.77
2022-09-28T09:48:51.672Z,10.78
2022-09-28T09:49:51.762Z,10.84
2022-09-28T09:50:51.850Z,10.91
2022-09-28T09:51:51.937Z,10.98
2022-09-28T09:52:52.050Z,10.99
2022-09-28T09:53:52.113Z,10.98
2022-09-28T09:54:52.206Z,10.98
2022-09-28T09:55:52.418Z,10.95
2022-09-28T09:56:52.366Z,10.91
2022-09-28T09:57:52.443Z,10.83
2022-09-28T09:58:52.498Z,10.81
2022-09-28T09:59:52.657Z,10.77
2022-09-28T10:00:52.748Z,10.77
2022-09-28T10:01:52.761Z,10.76
2022-09-28T10:02:52.847Z,10.65
2022-09-28T10:03:52.891Z,10.66
2022-09-28T10:04:52.991Z,10.66
2022-09-28T10:05:53.102Z,10.68
2022-09-28T10:06:53.823Z,10.73
2022-09-28T10:07:53.269Z,10.71
2022-09-28T10:08:53.318Z,10.65
2022-09-28T10:09:53.402Z,10.66
2022-09-28T10:10:53.576Z,10.71
2022-09-28T10:11:53.598Z,10.77
2022-09-28T10:12:53.693Z,10.83
2022-09-28T10:13:53.781Z,10.91
2022-09-28T10:14:53.930Z,10.77
2022-09-28T10:15:53.978Z,10.80
2022-09-28T10:16:54.119Z,10.88
2022-09-28T10:17:54.280Z,10.96
2022-09-28T10:18:54.202Z,11.02
2022-09-28T10:19:54.319Z,11.01
2022-09-28T10:20:54.383Z,11.06
2022-09-28T10:21:54.485Z,11.10
2022-09-28T10:22:54.554Z,11.14
2022-09-28T10:23:54.618Z,11.16
2022-09-28T10:24:54.716Z,11.13
2022-09-28T10:25:54.835Z,11.16
2022-09-28T10:26:54.940Z,11.16
2022-09-28T10:27:55.002Z,11.20
2022-09-28T10:28:55.074Z,11.25
2022-09-28T10:29:55.141Z,11.25
2022-09-28T10:30:55.324Z,11.31
2022-09-28T10:31:55.289Z,11.35
2022-09-28T10:32:55.608Z,11.44
2022-09-28T10:33:55.497Z,11.47
2022-09-28T10:34:55.540Z,11.46
2022-09-28T10:35:55.603Z,11.43
2022-09-28T10:36:55.692Z,11.32
2022-09-28T10:37:55.821Z,11.32
2022-09-28T10:38:55.887Z,11.36
2022-09-28T10:39:55.999Z,11.43
2022-09-28T10:40:56.145Z,11.50
2022-09-28T10:41:56.147Z,11.50
2022-09-28T10:42:56.227Z,11.53
2022-09-28T10:43:58.171Z,11.54
2022-09-28T10:44:56.411Z,11.46
2022-09-28T10:45:56.601Z,11.46
2022-09-28T10:46:56.643Z,11.47
2022-09-28T10:47:56.632Z,11.46
2022-09-28T10:48:56.773Z,11.44
2022-09-28T10:49:56.829Z,11.44
2022-09-28T10:50:56.871Z,11.46
2022-09-28T10:51:56.984Z,11.39
2022-09-28T10:52:57.063Z,11.41
2022-09-28T10:53:57.176Z,11.38
2022-09-28T10:54:57.316Z,11.20
2022-09-28T10:55:57.346Z,11.13
2022-09-28T10:56:57.432Z,11.14
2022-09-28T10:57:57.568Z,11.11
2022-09-28T10:58:57.615Z,11.07
2022-09-28T10:59:57.760Z,11.07
2022-09-28T11:00:57.807Z,10.99
2022-09-28T11:01:57.844Z,10.99
2022-09-28T11:02:57.975Z,10.86
2022-09-28T11:03:58.057Z,10.76
2022-09-28T11:04:58.106Z,10.76
2022-09-28T11:05:58.306Z,10.77
2022-09-28T11:07:58.287Z,10.71
2022-09-28T11:08:58.384Z,10.70
2022-09-28T11:09:58.493Z,10.68
2022-09-28T11:10:58.596Z,10.68
2022-09-28T11:11:58.674Z,10.68
2022-09-28T11:12:58.758Z,10.70
2022-09-28T11:13:58.865Z,10.66
2022-09-28T11:14:58.977Z,10.66
2022-09-28T11:15:59.022Z,10.65
2022-09-28T11:16:59.141Z,10.59
2022-09-28T11:17:59.149Z,10.55
2022-09-28T11:18:59.234Z,10.56
2022-09-28T11:19:59.341Z,10.52
2022-09-28T11:20:59.479Z,10.44
2022-09-28T11:21:59.529Z,10.37
2022-09-28T11:22:59.591Z,10.36
2022-09-28T11:23:59.681Z,10.33
2022-09-28T11:24:59.759Z,10.33
2022-09-28T11:25:59.879Z,10.33
2022-09-28T11:26:59.923Z,10.36
2022-09-28T11:28:00.009Z,10.40
2022-09-28T11:29:00.141Z,10.39
2022-09-28T11:30:00.225Z,10.42
2022-09-28T11:31:00.320Z,10.46
2022-09-28T11:32:00.454Z,10.47
2022-09-28T11:33:00.444Z,10.47
2022-09-28T11:34:00.531Z,10.52
2022-09-28T11:35:00.751Z,10.43
2022-09-28T11:36:00.750Z,10.46
2022-09-28T11:37:01.805Z,10.55
2022-09-28T11:38:00.879Z,10.58
2022-09-28T11:39:00.956Z,10.60
2022-09-28T11:40:01.039Z,10.63
2022-09-28T11:41:01.176Z,10.68
2022-09-28T11:42:01.188Z,10.74
2022-09-28T11:43:01.332Z,10.84
2022-09-28T11:44:01.351Z,10.84
2022-09-28T11:45:01.420Z,10.88
2022-09-28T11:46:01.613Z,10.89
2022-09-28T11:47:01.608Z,10.94
2022-09-28T11:48:01.720Z,10.95
2022-09-28T11:49:01.795Z,10.83
2022-09-28T11:50:01.936Z,10.86
2022-09-28T11:51:02.036Z,10.98
2022-09-28T11:52:02.078Z,11.03
2022-09-28T11:53:02.183Z,11.07
2022-09-28T11:54:02.280Z,11.11
2022-09-28T11:55:02.356Z,11.09
2022-09-28T11:56:06.565Z,11.14
2022-09-28T11:57:02.592Z,11.17
2022-09-28T11:58:02.613Z,11.28
2022-09-28T11:59:02.724Z,11.35
2022-09-28T12:00:02.792Z,11.44
2022-09-28T12:01:02.908Z,11.50
2022-09-28T12:02:03.119Z,11.59
2022-09-28T12:03:03.266Z,11.59
2022-09-28T12:04:03.159Z,11.56
2022-09-28T12:05:03.229Z,11.64
2022-09-28T12:06:03.289Z,11.54
2022-09-28T12:07:03.389Z,11.49
2022-09-28T12:08:03.460Z,11.31
2022-09-28T12:09:03.519Z,11.32
2022-09-28T12:10:03.618Z,11.36
2022-09-28T12:11:03.695Z,11.34
2022-09-28T12:12:03.830Z,11.32
2022-09-28T12:13:03.904Z,11.28
2022-09-28T12:14:03.984Z,11.31
2022-09-28T12:15:04.081Z,11.32
2022-09-28T12:17:07.297Z,11.28
2022-09-28T12:18:04.463Z,11.29
2022-09-28T12:19:04.436Z,11.27
2022-09-28T12:20:04.504Z,11.17
2022-09-28T12:21:05.347Z,11.19
2022-09-28T12:22:04.650Z,11.29
2022-09-28T12:23:04.683Z,11.38
2022-09-28T12:24:04.960Z,11.31
2022-09-28T12:25:04.832Z,11.28
2022-09-28T12:26:04.940Z,11.36
2022-09-28T12:27:05.064Z,11.49
2022-09-28T12:28:05.112Z,11.36
2022-09-28T12:29:05.204Z,11.25
2022-09-28T12:30:05.307Z,11.17
2022-09-28T12:31:05.381Z,11.21
2022-09-28T12:32:05.447Z,11.29
2022-09-28T12:33:05.515Z,11.32
2022-09-28T12:34:05.613Z,11.34
2022-09-28T12:35:05.692Z,11.39
2022-09-28T12:36:05.784Z,11.39
2022-09-28T12:37:05.888Z,11.44
2022-09-28T12:38:05.968Z,11.46
2022-09-28T12:39:19.131Z,11.39
2022-09-28T12:40:06.881Z,11.43
2022-09-28T12:41:06.257Z,11.21
2022-09-28T12:42:06.347Z,11.02
2022-09-28T12:43:06.366Z,10.94
2022-09-28T12:44:06.449Z,10.95
2022-09-28T12:45:06.535Z,11.07
2022-09-28T12:46:11.948Z,10.91
2022-09-28T12:47:06.780Z,10.84
2022-09-28T12:48:06.810Z,10.78
2022-09-28T12:50:01.834Z,10.83
2022-09-28T12:50:45.604Z,10.73
2022-09-28T12:51:06.977Z,10.62
2022-09-28T12:52:07.118Z,10.53
2022-09-28T12:53:07.178Z,10.55
2022-09-28T12:54:07.353Z,10.55
2022-09-28T12:55:07.388Z,10.47
2022-09-28T12:56:07.517Z,10.51
2022-09-28T12:57:07.534Z,10.47
2022-09-28T12:58:07.693Z,10.39
2022-09-28T12:59:07.711Z,10.30
2022-09-28T13:00:07.762Z,10.30
2022-09-28T13:01:07.857Z,10.36
2022-09-28T13:02:07.935Z,10.32
2022-09-28T13:03:07.961Z,10.30
2022-09-28T13:04:12.704Z,10.22
2022-09-28T13:05:08.196Z,10.21
2022-09-28T13:06:08.214Z,10.21
2022-09-28T13:07:08.294Z,10.18
2022-09-28T13:08:08.530Z,10.15
2022-09-28T13:09:08.524Z,10.04
2022-09-28T13:10:08.550Z,10.01
2022-09-28T13:11:08.641Z,10.09
2022-09-28T13:12:08.767Z,10.18
2022-09-28T13:13:08.790Z,10.24
2022-09-28T13:14:08.894Z,10.28
2022-09-28T13:15:09.080Z,10.33
2022-09-28T13:16:09.196Z,10.40
2022-09-28T13:17:09.162Z,10.47
2022-09-28T13:18:09.258Z,10.58
2022-09-28T13:19:09.423Z,10.46
2022-09-28T13:20:09.459Z,10.51
2022-09-28T13:21:09.561Z,10.53
2022-09-28T13:22:09.698Z,10.53
2022-09-28T13:23:09.758Z,10.55
2022-09-28T13:24:30.948Z,10.58